createdAt,value
2019-04-22T00:00:28.892Z,1009.35
2019-04-22T00:00:55.923Z,1009.33
2019-04-22T00:01:29.418Z,1009.35
2019-04-22T00:02:00.485Z,1009.29
2019-04-22T00:02:26.446Z,1009.31
2019-04-22T00:03:01.341Z,1009.28
2019-04-22T00:03:33.801Z,1009.28
2019-04-22T00:04:03.286Z,1009.27
2019-04-22T00:04:39.152Z,1009.31
2019-04-22T00:05:11.365Z,1009.26
2019-04-22T00:05:48.222Z,1009.26
2019-04-22T00:06:17.634Z,1009.29
2019-04-22T00:06:49.560Z,1009.28
2019-04-22T00:07:21.977Z,1009.22
2019-04-22T00:07:56.217Z,1009.23
2019-04-22T00:08:24.056Z,1009.22
2019-04-22T00:08:55.184Z,1009.22
2019-04-22T00:09:30.472Z,1009.22
2019-04-22T00:09:58.008Z,1009.17
2019-04-22T00:10:32.016Z,1009.22
2019-04-22T00:11:02.701Z,1009.21
2019-04-22T00:11:28.650Z,1009.19
2019-04-22T00:12:05.619Z,1009.19
2019-04-22T00:12:33.949Z,1009.19
2019-04-22T00:13:06.253Z,1009.16
2019-04-22T00:13:39.006Z,1009.19
2019-04-22T00:14:00.547Z,1009.2
2019-04-22T00:14:27.907Z,1009.19
2019-04-22T00:14:56.888Z,1009.19
2019-04-22T00:15:25.725Z,1009.11
2019-04-22T00:15:59.091Z,1009.17
2019-04-22T00:16:37.571Z,1009.14
2019-04-22T00:17:06.655Z,1009.17
2019-04-22T00:17:44.596Z,1009.13
2019-04-22T00:18:54.086Z,1009.12
2019-04-22T00:19:14.980Z,1009.12
2019-04-22T00:19:41.873Z,1009.09
2019-04-22T00:20:08.417Z,1009.11
2019-04-22T00:20:41.861Z,1009.1
2019-04-22T00:21:12.025Z,1009.12
2019-04-22T00:21:45.854Z,1009.08
2019-04-22T00:22:14.941Z,1009.05
2019-04-22T00:22:44.209Z,1009.03
2019-04-22T00:23:11.222Z,1009.05
2019-04-22T00:23:45.021Z,1009.06
2019-04-22T00:24:16.817Z,1009.09
2019-04-22T00:24:43.437Z,1009.02
2019-04-22T00:25:19.199Z,1009.03
2019-04-22T00:26:22.265Z,1009.01
2019-04-22T00:26:49.816Z,1008.99
2019-04-22T00:27:27.757Z,1008.98
2019-04-22T00:27:54.785Z,1009
2019-04-22T00:28:21.321Z,1009
2019-04-22T00:29:42.203Z,1008.97
2019-04-22T00:30:12.826Z,1008.97
2019-04-22T00:30:20.274Z,1008.98
2019-04-22T00:30:53.561Z,1008.98
2019-04-22T00:31:26.545Z,1008.96
2019-04-22T00:31:52.622Z,1008.95
2019-04-22T00:32:23.941Z,1008.97
2019-04-22T00:32:55.325Z,1008.91
2019-04-22T00:33:26.210Z,1008.95
2019-04-22T00:33:57.531Z,1008.92
2019-04-22T00:34:26.673Z,1008.91
2019-04-22T00:34:58.860Z,1008.9
2019-04-22T00:35:29.093Z,1008.91
2019-04-22T00:36:00.989Z,1008.88
2019-04-22T00:36:27.350Z,1008.91
2019-04-22T00:37:00.131Z,1008.89
2019-04-22T00:37:34.484Z,1008.89
2019-04-22T00:38:36.654Z,1008.87
2019-04-22T00:39:06.376Z,1008.87
2019-04-22T00:39:35.555Z,1008.86
2019-04-22T00:40:06.792Z,1008.87
2019-04-22T00:41:05.361Z,1008.85
2019-04-22T00:41:35.599Z,1008.83
2019-04-22T00:42:07.587Z,1008.82
2019-04-22T00:42:40.760Z,1008.83
2019-04-22T00:43:13.185Z,1008.83
2019-04-22T00:43:39.029Z,1008.83
2019-04-22T00:44:11.502Z,1008.83
2019-04-22T00:44:44.985Z,1008.82
2019-04-22T00:45:11.438Z,1008.79
2019-04-22T00:45:42.758Z,1008.82
2019-04-22T00:46:17.393Z,1008.82
2019-04-22T00:46:45.514Z,1008.81
2019-04-22T00:47:16.181Z,1008.82
2019-04-22T00:48:00.306Z,1008.77
2019-04-22T00:48:20.452Z,1008.82
2019-04-22T00:48:53.074Z,1008.78
2019-04-22T00:49:58.046Z,1008.79
2019-04-22T00:50:54.931Z,1008.78
2019-04-22T00:51:22.317Z,1008.75
2019-04-22T00:51:56.734Z,1008.79
2019-04-22T00:52:21.578Z,1008.76
2019-04-22T00:52:54.478Z,1008.75
2019-04-22T00:53:22.319Z,1008.75
2019-04-22T00:53:54.137Z,1008.74
2019-04-22T00:54:21.267Z,1008.78
2019-04-22T00:54:58.719Z,1008.78
2019-04-22T00:55:24.398Z,1008.76
2019-04-22T00:56:00.193Z,1008.75
2019-04-22T00:56:27.517Z,1008.76
2019-04-22T00:57:01.010Z,1008.78
2019-04-22T00:57:27.644Z,1008.79
2019-04-22T00:58:01.104Z,1008.76
2019-04-22T00:58:30.606Z,1008.74
2019-04-22T00:58:58.277Z,1008.73
2019-04-22T00:59:28.476Z,1008.75
2019-04-22T01:00:05.221Z,1008.74
2019-04-22T01:00:37.405Z,1008.7
2019-04-22T01:01:07.658Z,1008.71
2019-04-22T01:01:36.594Z,1008.71
2019-04-22T01:02:12.927Z,1008.77
2019-04-22T01:02:41.336Z,1008.7
2019-04-22T01:03:09.738Z,1008.74
2019-04-22T01:04:19.737Z,1008.7
2019-04-22T01:05:14.765Z,1008.69
2019-04-22T01:05:46.405Z,1008.7
2019-04-22T01:06:15.666Z,1008.7
2019-04-22T01:06:44.068Z,1008.67
2019-04-22T01:07:42.811Z,1008.67
2019-04-22T01:08:20.894Z,1008.67
2019-04-22T01:08:52.868Z,1008.61
2019-04-22T01:09:16.721Z,1008.66
2019-04-22T01:09:51.549Z,1008.63
2019-04-22T01:10:18.619Z,1008.65
2019-04-22T01:10:45.038Z,1008.64
2019-04-22T01:11:22.525Z,1008.65
2019-04-22T01:11:44.363Z,1008.67
2019-04-22T01:12:19.484Z,1008.63
2019-04-22T01:12:49.556Z,1008.65
2019-04-22T01:13:24.570Z,1008.64
2019-04-22T01:13:49.378Z,1008.64
2019-04-22T01:14:21.496Z,1008.65
2019-04-22T01:14:53.644Z,1008.66
2019-04-22T01:15:57.012Z,1008.63
2019-04-22T01:16:53.589Z,1008.61
2019-04-22T01:17:25.435Z,1008.62
2019-04-22T01:18:22.196Z,1008.64
2019-04-22T01:18:53.390Z,1008.65
2019-04-22T01:19:29.388Z,1008.6
2019-04-22T01:20:54.154Z,1008.61
2019-04-22T01:21:35.039Z,1008.6
2019-04-22T01:22:04.475Z,1008.57
2019-04-22T01:22:26.299Z,1008.58
2019-04-22T01:23:03.649Z,1008.55
2019-04-22T01:23:34.219Z,1008.55
2019-04-22T01:24:02.384Z,1008.54
2019-04-22T01:24:32.178Z,1008.55
2019-04-22T01:25:01.767Z,1008.52
2019-04-22T01:25:29.281Z,1008.52
2019-04-22T01:26:00.384Z,1008.49
2019-04-22T01:26:33.927Z,1008.44
2019-04-22T01:27:01.722Z,1008.48
2019-04-22T01:27:34.315Z,1008.47
2019-04-22T01:28:00.746Z,1008.51
2019-04-22T01:28:34.014Z,1008.47
2019-04-22T01:29:00.685Z,1008.45
2019-04-22T01:29:34.824Z,1008.45
2019-04-22T01:30:03.554Z,1008.47
2019-04-22T01:30:32.126Z,1008.44
2019-04-22T01:30:59.310Z,1008.46
2019-04-22T01:31:25.759Z,1008.46
2019-04-22T01:31:53.035Z,1008.45
2019-04-22T01:32:27.192Z,1008.43
2019-04-22T01:33:02.576Z,1008.43
2019-04-22T01:33:31.032Z,1008.4
2019-04-22T01:34:05.342Z,1008.44
2019-04-22T01:34:35.992Z,1008.45
2019-04-22T01:35:08.216Z,1008.44
2019-04-22T01:35:35.693Z,1008.42
2019-04-22T01:36:13.522Z,1008.39
2019-04-22T01:36:41.312Z,1008.4
2019-04-22T01:37:13.539Z,1008.38
2019-04-22T01:37:44.963Z,1008.36
2019-04-22T01:38:13.034Z,1008.36
2019-04-22T01:38:51.023Z,1008.38
2019-04-22T01:39:19.866Z,1008.36
2019-04-22T01:39:56.745Z,1008.35
2019-04-22T01:40:59.589Z,1008.36
2019-04-22T01:41:32.003Z,1008.36
2019-04-22T01:41:59.591Z,1008.36
2019-04-22T01:42:32.528Z,1008.35
2019-04-22T01:43:01.662Z,1008.35
2019-04-22T01:43:31.358Z,1008.36
2019-04-22T01:44:05.471Z,1008.32
2019-04-22T01:44:32.625Z,1008.34
2019-04-22T01:44:56.539Z,1008.35
2019-04-22T01:45:31.092Z,1008.34
2019-04-22T01:46:07.707Z,1008.32
2019-04-22T01:46:36.485Z,1008.33
2019-04-22T01:47:03.260Z,1008.3
2019-04-22T01:47:36.159Z,1008.33
2019-04-22T01:48:02.153Z,1008.29
2019-04-22T01:48:32.342Z,1008.31
2019-04-22T01:49:07.606Z,1008.29
2019-04-22T01:49:33.162Z,1008.26
2019-04-22T01:50:05.982Z,1008.28
2019-04-22T01:50:36.649Z,1008.28
2019-04-22T01:51:00.606Z,1008.3
2019-04-22T01:51:45.047Z,1008.3
2019-04-22T01:52:11.269Z,1008.3
2019-04-22T01:52:36.509Z,1008.3
2019-04-22T01:53:10.234Z,1008.31
2019-04-22T01:53:40.977Z,1008.32
2019-04-22T01:54:11.950Z,1008.27
2019-04-22T01:54:46.491Z,1008.27
2019-04-22T01:55:17.307Z,1008.3
2019-04-22T01:55:43.743Z,1008.28
2019-04-22T01:56:13.117Z,1008.24
2019-04-22T01:56:46.529Z,1008.28
2019-04-22T01:57:09.688Z,1008.28
2019-04-22T01:57:41.269Z,1008.21
2019-04-22T01:58:10.581Z,1008.21
2019-04-22T01:58:37.928Z,1008.24
2019-04-22T01:59:10.872Z,1008.23
2019-04-22T01:59:40.007Z,1008.18
2019-04-22T02:00:10.966Z,1008.25
2019-04-22T02:00:53.099Z,1008.17
2019-04-22T02:01:21.914Z,1008.18
2019-04-22T02:01:54.892Z,1008.18
2019-04-22T02:02:21.981Z,1008.19
2019-04-22T02:02:57.128Z,1008.19
2019-04-22T02:03:25.409Z,1008.17
2019-04-22T02:04:17.066Z,1008.15
2019-04-22T02:04:31.476Z,1008.15
2019-04-22T02:04:59.281Z,1008.15
2019-04-22T02:05:22.609Z,1008.15
2019-04-22T02:05:58.649Z,1008.15
2019-04-22T02:06:29.949Z,1008.14
2019-04-22T02:07:01.659Z,1008.14
2019-04-22T02:07:28.986Z,1008.12
2019-04-22T02:08:03.912Z,1008.17
2019-04-22T02:08:37.718Z,1008.15
2019-04-22T02:09:09.233Z,1008.17
2019-04-22T02:10:02.051Z,1008.09
2019-04-22T02:11:00.594Z,1008.13
2019-04-22T02:11:38.720Z,1008.14
2019-04-22T02:12:05.681Z,1008.15
2019-04-22T02:12:38.470Z,1008.15
2019-04-22T02:13:06.325Z,1008.09
2019-04-22T02:13:49.195Z,1008.12
2019-04-22T02:14:11.138Z,1008.16
2019-04-22T02:14:43.850Z,1008.15
2019-04-22T02:15:11.705Z,1008.16
2019-04-22T02:15:47.212Z,1008.14
2019-04-22T02:16:14.034Z,1008.11
2019-04-22T02:16:41.091Z,1008.13
2019-04-22T02:17:31.371Z,1008.12
2019-04-22T02:17:44.326Z,1008.11
2019-04-22T02:18:22.778Z,1008.11
2019-04-22T02:18:44.034Z,1008.1
2019-04-22T02:19:22.354Z,1008.11
2019-04-22T02:19:52.921Z,1008.04
2019-04-22T02:20:16.670Z,1008.05
2019-04-22T02:20:48.142Z,1008.1
2019-04-22T02:21:48.177Z,1008.05
2019-04-22T02:22:28.585Z,1008.05
2019-04-22T02:23:15.099Z,1008.04
2019-04-22T02:24:25.909Z,1008.05
2019-04-22T02:24:50.754Z,1007.98
2019-04-22T02:25:23.480Z,1008
2019-04-22T02:26:00.513Z,1008.01
2019-04-22T02:26:31.107Z,1008.02
2019-04-22T02:26:54.074Z,1008.01
2019-04-22T02:27:31.925Z,1008
2019-04-22T02:28:04.753Z,1008.04
2019-04-22T02:29:00.911Z,1007.98
2019-04-22T02:29:34.243Z,1008
2019-04-22T02:29:57.511Z,1007.96
2019-04-22T02:30:49.135Z,1007.97
2019-04-22T02:31:19.612Z,1007.98
2019-04-22T02:31:44.003Z,1007.96
2019-04-22T02:32:19.074Z,1007.99
2019-04-22T02:32:48.050Z,1007.97
2019-04-22T02:33:24.617Z,1007.96
2019-04-22T02:34:00.569Z,1007.99
2019-04-22T02:35:23.154Z,1007.95
2019-04-22T02:35:57.115Z,1007.93
2019-04-22T02:36:22.008Z,1007.95
2019-04-22T02:36:40.794Z,1007.95
2019-04-22T02:37:44.673Z,1007.92
2019-04-22T02:38:33.755Z,1007.9
2019-04-22T02:38:58.260Z,1007.88
2019-04-22T02:39:17.055Z,1007.9
2019-04-22T02:39:54.714Z,1007.89
2019-04-22T02:40:29.990Z,1007.87
2019-04-22T02:41:54.491Z,1007.82
2019-04-22T02:42:15.962Z,1007.87
2019-04-22T02:43:00.956Z,1007.85
2019-04-22T02:44:08.015Z,1007.84
2019-04-22T02:44:41.771Z,1007.84
2019-04-22T02:44:52.657Z,1007.81
2019-04-22T02:45:36.754Z,1007.84
2019-04-22T02:46:42.750Z,1007.78
2019-04-22T02:47:09.652Z,1007.76
2019-04-22T02:47:26.607Z,1007.83
2019-04-22T02:48:09.619Z,1007.78
2019-04-22T02:50:04.957Z,1007.75
2019-04-22T02:50:36.012Z,1007.73
2019-04-22T02:52:09.132Z,1007.69
2019-04-22T02:52:42.566Z,1007.73
2019-04-22T02:53:13.048Z,1007.71
2019-04-22T02:54:29.149Z,1007.68
2019-04-22T02:54:47.005Z,1007.7
2019-04-22T02:55:48.653Z,1007.62
2019-04-22T02:56:26.759Z,1007.68
2019-04-22T02:57:46.846Z,1007.67
2019-04-22T02:58:25.391Z,1007.66
2019-04-22T02:59:21.748Z,1007.62
2019-04-22T02:59:56.457Z,1007.71
2019-04-22T03:01:04.873Z,1007.68
2019-04-22T03:01:29.390Z,1007.66
2019-04-22T03:02:11.699Z,1007.61
2019-04-22T03:02:50.359Z,1007.63
2019-04-22T03:03:08.335Z,1007.65
2019-04-22T03:03:40.336Z,1007.63
2019-04-22T03:04:22.070Z,1007.62
2019-04-22T03:05:36.243Z,1007.64
2019-04-22T03:06:34.485Z,1007.6
2019-04-22T03:06:54.946Z,1007.58
2019-04-22T03:07:31.531Z,1007.57
2019-04-22T03:08:06.070Z,1007.57
2019-04-22T03:08:39.202Z,1007.59
2019-04-22T03:09:37.692Z,1007.56
2019-04-22T03:10:06.437Z,1007.54
2019-04-22T03:10:45.966Z,1007.52
2019-04-22T03:11:12.327Z,1007.55
2019-04-22T03:12:15.988Z,1007.51
2019-04-22T03:12:32.814Z,1007.53
2019-04-22T03:13:20.906Z,1007.49
2019-04-22T03:14:40.184Z,1007.48
2019-04-22T03:15:50.700Z,1007.5
2019-04-22T03:16:42.679Z,1007.48
2019-04-22T03:17:20.312Z,1007.5
2019-04-22T03:17:51.108Z,1007.46
2019-04-22T03:18:28.844Z,1007.49
2019-04-22T03:19:33.766Z,1007.5
2019-04-22T03:19:58.342Z,1007.47
2019-04-22T03:20:41.044Z,1007.44
2019-04-22T03:20:57.662Z,1007.49
2019-04-22T03:21:23.676Z,1007.46
2019-04-22T03:22:27.794Z,1007.46
2019-04-22T03:23:05.117Z,1007.45
2019-04-22T03:24:40.265Z,1007.44
2019-04-22T03:25:31.657Z,1007.45
2019-04-22T03:26:37.413Z,1007.46
2019-04-22T03:27:34.623Z,1007.44
2019-04-22T03:27:58.084Z,1007.42
2019-04-22T03:28:46.046Z,1007.43
2019-04-22T03:29:10.462Z,1007.41
2019-04-22T03:29:56.024Z,1007.47
2019-04-22T03:31:18.267Z,1007.41
2019-04-22T03:32:38.900Z,1007.42
2019-04-22T03:33:10.524Z,1007.41
2019-04-22T03:34:14.126Z,1007.4
2019-04-22T03:36:57.009Z,1007.4
2019-04-22T03:37:50.211Z,1007.42
2019-04-22T03:38:40.829Z,1007.41
2019-04-22T03:39:14.818Z,1007.42
2019-04-22T03:39:44.394Z,1007.38
2019-04-22T03:40:01.988Z,1007.38
2019-04-22T03:42:31.620Z,1007.38
2019-04-22T03:43:41.936Z,1007.39
2019-04-22T03:44:18.514Z,1007.32
2019-04-22T03:44:38.172Z,1007.36
2019-04-22T03:45:19.049Z,1007.36
2019-04-22T03:45:29.959Z,1007.36
2019-04-22T03:46:10.747Z,1007.41
2019-04-22T03:46:50.285Z,1007.37
2019-04-22T03:47:40.969Z,1007.38
2019-04-22T03:48:06.697Z,1007.39
2019-04-22T03:48:45.026Z,1007.35
2019-04-22T03:49:27.982Z,1007.36
2019-04-22T03:49:54.088Z,1007.37
2019-04-22T03:50:20.280Z,1007.35
2019-04-22T03:50:35.921Z,1007.36
2019-04-22T03:51:24.658Z,1007.38
2019-04-22T03:51:56.451Z,1007.34
2019-04-22T03:52:52.496Z,1007.36
2019-04-22T03:53:20.745Z,1007.34
2019-04-22T03:54:02.236Z,1007.3
2019-04-22T03:55:01.625Z,1007.31
2019-04-22T03:55:50.821Z,1007.32
2019-04-22T03:56:55.823Z,1007.29
2019-04-22T03:57:36.623Z,1007.3
2019-04-22T03:58:27.816Z,1007.28
2019-04-22T03:59:07.018Z,1007.33
2019-04-22T04:01:05.407Z,1007.31
2019-04-22T04:01:43.571Z,1007.26
2019-04-22T04:02:12.872Z,1007.3
2019-04-22T04:03:39.127Z,1007.28
2019-04-22T04:04:36.653Z,1007.29
2019-04-22T04:05:09.272Z,1007.3
2019-04-22T04:05:45.169Z,1007.3
2019-04-22T04:06:16.797Z,1007.25
2019-04-22T04:06:58.962Z,1007.26
2019-04-22T04:07:47.089Z,1007.28
2019-04-22T04:08:50.832Z,1007.27
2019-04-22T04:09:23.570Z,1007.3
2019-04-22T04:10:27.538Z,1007.34
2019-04-22T04:10:47.478Z,1007.33
2019-04-22T04:11:23.133Z,1007.31
2019-04-22T04:11:58.753Z,1007.29
2019-04-22T04:12:37.149Z,1007.32
2019-04-22T04:13:02.608Z,1007.29
2019-04-22T04:14:00.313Z,1007.31
2019-04-22T04:14:26.043Z,1007.3
2019-04-22T04:15:04.097Z,1007.29
2019-04-22T04:16:10.092Z,1007.28
2019-04-22T04:16:29.656Z,1007.26
2019-04-22T04:17:28.632Z,1007.26
2019-04-22T04:17:54.769Z,1007.28
2019-04-22T04:18:39.062Z,1007.26
2019-04-22T04:19:06.841Z,1007.26
2019-04-22T04:20:10.331Z,1007.24
2019-04-22T04:22:07.664Z,1007.21
2019-04-22T04:24:53.280Z,1007.25
2019-04-22T04:26:16.387Z,1007.26
2019-04-22T04:27:06.425Z,1007.25
2019-04-22T04:29:02.088Z,1007.24
2019-04-22T04:29:34.958Z,1007.21
2019-04-22T04:30:04.949Z,1007.27
2019-04-22T04:30:31.081Z,1007.25
2019-04-22T04:31:16.849Z,1007.26
2019-04-22T04:32:04.981Z,1007.22
2019-04-22T04:32:33.877Z,1007.23
2019-04-22T04:32:56.514Z,1007.23
2019-04-22T04:33:28.644Z,1007.22
2019-04-22T04:34:53.277Z,1007.23
2019-04-22T04:35:12.200Z,1007.22
2019-04-22T04:36:02.311Z,1007.21
2019-04-22T04:36:33.886Z,1007.21
2019-04-22T04:39:04.935Z,1007.17
2019-04-22T04:39:42.607Z,1007.18
2019-04-22T04:40:11.483Z,1007.21
2019-04-22T04:40:48.119Z,1007.17
2019-04-22T04:41:15.103Z,1007.19
2019-04-22T04:42:22.782Z,1007.21
2019-04-22T04:42:45.575Z,1007.22
2019-04-22T04:46:23.979Z,1007.23
2019-04-22T04:46:58.161Z,1007.22
2019-04-22T04:47:35.014Z,1007.24
2019-04-22T04:47:54.271Z,1007.24
2019-04-22T04:48:20.561Z,1007.22
2019-04-22T04:48:59.866Z,1007.22
2019-04-22T04:49:23.488Z,1007.24
2019-04-22T04:49:56.711Z,1007.24
2019-04-22T04:50:17.236Z,1007.23
2019-04-22T04:51:55.395Z,1007.26
2019-04-22T04:52:38.355Z,1007.22
2019-04-22T04:53:05.862Z,1007.25
2019-04-22T04:54:03.965Z,1007.22
2019-04-22T04:54:30.097Z,1007.24
2019-04-22T04:55:27.631Z,1007.21
2019-04-22T04:56:01.726Z,1007.24
2019-04-22T04:56:55.761Z,1007.22
2019-04-22T04:58:12.796Z,1007.24
2019-04-22T04:58:46.027Z,1007.23
2019-04-22T04:59:13.157Z,1007.26
2019-04-22T05:00:31.524Z,1007.26
2019-04-22T05:00:47.867Z,1007.26
2019-04-22T05:02:19.512Z,1007.28
2019-04-22T05:02:44.425Z,1007.27
2019-04-22T05:03:48.469Z,1007.27
2019-04-22T05:04:25.242Z,1007.24
2019-04-22T05:04:56.058Z,1007.24
2019-04-22T05:05:47.354Z,1007.23
2019-04-22T05:06:51.018Z,1007.24
2019-04-22T05:07:47.119Z,1007.24
2019-04-22T05:08:27.183Z,1007.22
2019-04-22T05:09:18.133Z,1007.26
2019-04-22T05:09:51.375Z,1007.21
2019-04-22T05:10:33.354Z,1007.23
2019-04-22T05:12:00.766Z,1007.22
2019-04-22T05:12:44.828Z,1007.17
2019-04-22T05:12:56.494Z,1007.2
2019-04-22T05:13:32.057Z,1007.22
2019-04-22T05:14:05.299Z,1007.22
2019-04-22T05:14:23.894Z,1007.2
2019-04-22T05:14:54.763Z,1007.21
2019-04-22T05:15:22.702Z,1007.21
2019-04-22T05:16:09.128Z,1007.22
2019-04-22T05:17:01.973Z,1007.19
2019-04-22T05:17:34.700Z,1007.24
2019-04-22T05:17:57.202Z,1007.19
2019-04-22T05:18:28.774Z,1007.18
2019-04-22T05:18:56.958Z,1007.23
2019-04-22T05:19:35.535Z,1007.22
2019-04-22T05:20:04.603Z,1007.23
2019-04-22T05:21:08.937Z,1007.19
2019-04-22T05:21:46.765Z,1007.18
2019-04-22T05:22:03.910Z,1007.18
2019-04-22T05:22:33.443Z,1007.21
2019-04-22T05:22:57.475Z,1007.17
2019-04-22T05:23:37.030Z,1007.23
2019-04-22T05:24:09.162Z,1007.22
2019-04-22T05:25:04.362Z,1007.17
2019-04-22T05:25:48.447Z,1007.18
2019-04-22T05:26:09.226Z,1007.16
2019-04-22T05:26:38.963Z,1007.15
2019-04-22T05:27:12.754Z,1007.18
2019-04-22T05:27:39.328Z,1007.15
2019-04-22T05:28:04.868Z,1007.18
2019-04-22T05:28:34.865Z,1007.15
2019-04-22T05:29:09.461Z,1007.17
2019-04-22T05:29:59.980Z,1007.16
2019-04-22T05:30:38.987Z,1007.13
2019-04-22T05:31:13.830Z,1007.17
2019-04-22T05:31:43.370Z,1007.17
2019-04-22T05:32:07.740Z,1007.16
2019-04-22T05:32:42.872Z,1007.17
2019-04-22T05:33:06.874Z,1007.12
2019-04-22T05:33:40.511Z,1007.16
2019-04-22T05:34:14.246Z,1007.15
2019-04-22T05:34:47.750Z,1007.11
2019-04-22T05:35:13.931Z,1007.12
2019-04-22T05:35:45.488Z,1007.12
2019-04-22T05:36:46.576Z,1007.14
2019-04-22T05:37:20.399Z,1007.15
2019-04-22T05:37:49.825Z,1007.13
2019-04-22T05:38:53.327Z,1007.11
2019-04-22T05:39:15.403Z,1007.11
2019-04-22T05:39:48.371Z,1007.13
2019-04-22T05:40:22.814Z,1007.1
2019-04-22T05:40:49.475Z,1007.14
2019-04-22T05:41:21.832Z,1007.15
2019-04-22T05:41:54.201Z,1007.11
2019-04-22T05:42:33.985Z,1007.14
2019-04-22T05:42:55.830Z,1007.11
2019-04-22T05:43:27.071Z,1007.14
2019-04-22T05:43:58.021Z,1007.11
2019-04-22T05:44:29.266Z,1007.13
2019-04-22T05:45:02.468Z,1007.11
2019-04-22T05:45:31.010Z,1007.13
2019-04-22T05:45:57.438Z,1007.13
2019-04-22T05:46:28.134Z,1007.14
2019-04-22T05:47:00.868Z,1007.12
2019-04-22T05:47:31.811Z,1007.12
2019-04-22T05:48:00.765Z,1007.16
2019-04-22T05:48:37.882Z,1007.15
2019-04-22T05:49:05.737Z,1007.12
2019-04-22T05:49:34.508Z,1007.18
2019-04-22T05:50:07.413Z,1007.13
2019-04-22T05:50:36.527Z,1007.14
2019-04-22T05:51:09.247Z,1007.12
2019-04-22T05:51:41.555Z,1007.11
2019-04-22T05:52:09.470Z,1007.14
2019-04-22T05:52:40.241Z,1007.12
2019-04-22T05:53:06.346Z,1007.08
2019-04-22T05:53:39.870Z,1007.07
2019-04-22T05:54:14.324Z,1007.09
2019-04-22T05:54:46.671Z,1007.03
2019-04-22T05:55:13.727Z,1007.05
2019-04-22T05:55:46.535Z,1007.08
2019-04-22T05:56:39.182Z,1007.05
2019-04-22T05:57:17.790Z,1007.07
2019-04-22T05:57:50.628Z,1007.08
2019-04-22T05:58:14.016Z,1007.06
2019-04-22T05:58:51.291Z,1007.06
2019-04-22T05:59:51.795Z,1007.06
2019-04-22T06:00:12.636Z,1007.06
2019-04-22T06:01:18.319Z,1007.04
2019-04-22T06:01:37.784Z,1007.05
2019-04-22T06:02:10.923Z,1007.08
2019-04-22T06:02:30.235Z,1007.09
2019-04-22T06:03:20.417Z,1007.11
2019-04-22T06:03:58.560Z,1007.07
2019-04-22T06:04:21.362Z,1007.05
2019-04-22T06:04:58.111Z,1007.05
2019-04-22T06:05:41.501Z,1007.04
2019-04-22T06:05:54.654Z,1007.04
2019-04-22T06:06:28.594Z,1007.04
2019-04-22T06:06:53.429Z,1007.03
2019-04-22T06:07:26.057Z,1007.07
2019-04-22T06:07:59.997Z,1006.99
2019-04-22T06:08:28.970Z,1007.02
2019-04-22T06:09:14.477Z,1007.03
2019-04-22T06:09:28.250Z,1007.01
2019-04-22T06:10:03.919Z,1007
2019-04-22T06:10:38.818Z,1007.01
2019-04-22T06:11:07.952Z,1007.01
2019-04-22T06:11:28.994Z,1007.04
2019-04-22T06:11:58.460Z,1007.01
2019-04-22T06:12:25.844Z,1007.03
2019-04-22T06:13:00.619Z,1007.02
2019-04-22T06:13:31.787Z,1007.03
2019-04-22T06:14:00.758Z,1007.03
2019-04-22T06:14:30.598Z,1007.05
2019-04-22T06:15:03.273Z,1007.05
2019-04-22T06:15:33.707Z,1007.04
2019-04-22T06:16:08.777Z,1007.04
2019-04-22T06:16:43.886Z,1007.03
2019-04-22T06:17:10.161Z,1007.05
2019-04-22T06:17:46.753Z,1007.03
2019-04-22T06:18:15.801Z,1007.06
2019-04-22T06:18:37.994Z,1007.03
2019-04-22T06:19:13.341Z,1007.08
2019-04-22T06:19:44.018Z,1007.08
2019-04-22T06:20:14.888Z,1007.13
2019-04-22T06:20:45.260Z,1007.11
2019-04-22T06:21:18.353Z,1007.1
2019-04-22T06:21:47.887Z,1007.09
2019-04-22T06:22:22.221Z,1007.1
2019-04-22T06:22:50.199Z,1007.05
2019-04-22T06:23:25.392Z,1007.1
2019-04-22T06:23:54.037Z,1007.13
2019-04-22T06:24:21.376Z,1007.11
2019-04-22T06:24:55.046Z,1007.13
2019-04-22T06:25:27.005Z,1007.08
2019-04-22T06:26:04.742Z,1007.12
2019-04-22T06:26:28.943Z,1007.16
2019-04-22T06:27:27.598Z,1007.13
2019-04-22T06:27:53.729Z,1007.16
2019-04-22T06:28:34.647Z,1007.11
2019-04-22T06:29:24.898Z,1007.09
2019-04-22T06:29:53.139Z,1007.12
2019-04-22T06:30:28.223Z,1007.09
2019-04-22T06:31:02.296Z,1007.07
2019-04-22T06:31:42.062Z,1007.09
2019-04-22T06:33:00.617Z,1007.09
2019-04-22T06:33:33.703Z,1007.05
2019-04-22T06:34:10.149Z,1007.07
2019-04-22T06:34:35.541Z,1007.08
2019-04-22T06:35:16.293Z,1007.07
2019-04-22T06:36:07.891Z,1007.03
2019-04-22T06:36:44.889Z,1007.07
2019-04-22T06:37:12.685Z,1007.05
2019-04-22T06:37:43.110Z,1007.05
2019-04-22T06:38:39.018Z,1007.09
2019-04-22T06:39:14.135Z,1007.06
2019-04-22T06:40:12.879Z,1007.06
2019-04-22T06:40:46.364Z,1007.05
2019-04-22T06:41:13.241Z,1007.07
2019-04-22T06:41:47.461Z,1007.06
2019-04-22T06:42:21.154Z,1007.05
2019-04-22T06:42:51.527Z,1007.05
2019-04-22T06:43:15.610Z,1007.05
2019-04-22T06:43:51.337Z,1007.06
2019-04-22T06:44:17.797Z,1007.06
2019-04-22T06:44:51.407Z,1007.05
2019-04-22T06:45:18.486Z,1007.08
2019-04-22T06:45:43.361Z,1007.06
2019-04-22T06:46:20.081Z,1007.06
2019-04-22T06:46:51.781Z,1007.03
2019-04-22T06:47:26.771Z,1007.08
2019-04-22T06:47:58.961Z,1007.08
2019-04-22T06:48:23.448Z,1007.04
2019-04-22T06:48:54.250Z,1007.02
2019-04-22T06:49:54.341Z,1007.01
2019-04-22T06:50:30.082Z,1007.06
2019-04-22T06:50:52.612Z,1007.02
2019-04-22T06:51:26.791Z,1007.01
2019-04-22T06:52:00.951Z,1007.05
2019-04-22T06:52:20.506Z,1007.02
2019-04-22T06:52:56.542Z,1007.04
2019-04-22T06:53:29.536Z,1007.05
2019-04-22T06:53:53.495Z,1007
2019-04-22T06:54:27.433Z,1006.99
2019-04-22T06:54:58.895Z,1007.06
2019-04-22T06:55:59.287Z,1007.06
2019-04-22T06:56:26.990Z,1007.1
2019-04-22T06:56:59.091Z,1007.06
2019-04-22T06:57:30.103Z,1007.15
2019-04-22T06:57:57.992Z,1007.18
2019-04-22T06:58:34.449Z,1007.2
2019-04-22T06:58:57.504Z,1007.22
2019-04-22T06:59:36.087Z,1007.14
2019-04-22T07:00:05.117Z,1007.12
2019-04-22T07:00:36.456Z,1007.12
2019-04-22T07:01:09.063Z,1007.09
2019-04-22T07:01:54.375Z,1007.08
2019-04-22T07:02:09.898Z,1007.13
2019-04-22T07:03:28.318Z,1007.11
2019-04-22T07:04:09.073Z,1007.13
2019-04-22T07:04:41.417Z,1007.06
2019-04-22T07:05:14.195Z,1007.09
2019-04-22T07:05:56.809Z,1007.01
2019-04-22T07:06:19.200Z,1007.07
2019-04-22T07:06:47.721Z,1007.12
2019-04-22T07:07:18.145Z,1007.13
2019-04-22T07:07:44.478Z,1007.1
2019-04-22T07:08:38.928Z,1007.12
2019-04-22T07:09:20.398Z,1007.12
2019-04-22T07:09:53.018Z,1007.16
2019-04-22T07:10:50.200Z,1007.07
2019-04-22T07:11:23.481Z,1007.07
2019-04-22T07:11:57.374Z,1007.11
2019-04-22T07:12:53.735Z,1007.13
2019-04-22T07:13:27.018Z,1007.05
2019-04-22T07:14:00.834Z,1007.08
2019-04-22T07:14:28.067Z,1007.05
2019-04-22T07:15:01.016Z,1007.1
2019-04-22T07:16:37.624Z,1007.08
2019-04-22T07:17:01.694Z,1007.15
2019-04-22T07:17:42.017Z,1007.08
2019-04-22T07:18:10.962Z,1007.11
2019-04-22T07:19:07.183Z,1007.06
2019-04-22T07:19:37.016Z,1007.07
2019-04-22T07:20:09.979Z,1007.12
2019-04-22T07:20:44.011Z,1007.11
2019-04-22T07:21:25.551Z,1007.1
2019-04-22T07:21:43.389Z,1007.07
2019-04-22T07:22:16.093Z,1007.05
2019-04-22T07:22:44.821Z,1007.08
2019-04-22T07:23:20.646Z,1007.1
2019-04-22T07:23:46.876Z,1007.12
2019-04-22T07:25:09.503Z,1007.07
2019-04-22T07:25:15.469Z,1007.05
2019-04-22T07:25:51.712Z,1007.01
2019-04-22T07:26:19.850Z,1007.02
2019-04-22T07:26:50.578Z,1007.02
2019-04-22T07:27:20.457Z,1007.03
2019-04-22T07:27:51.978Z,1007.05
2019-04-22T07:28:36.900Z,1007.04
2019-04-22T07:28:54.749Z,1007.04
2019-04-22T07:29:24.743Z,1007.08
2019-04-22T07:30:01.321Z,1007.01
2019-04-22T07:30:26.054Z,1007.02
2019-04-22T07:30:57.501Z,1007.08
2019-04-22T07:31:26.480Z,1007.05
2019-04-22T07:32:00.102Z,1007.04
2019-04-22T07:32:53.011Z,1007.11
2019-04-22T07:34:07.889Z,1007.08
2019-04-22T07:35:07.356Z,1007.02
2019-04-22T07:35:45.783Z,1007.04
2019-04-22T07:37:41.421Z,1007.02